Time;durP1;ratioP1;P1;durP2;ratioP2;P2;SDS_P1;SDS_P2;PMS_P1;PMS_P2;Temp;Humidity;BMP_temperature;BMP_pressure;BME280_temperature;BME280_humidity;BME280_pressure;Samples;Min_cycle;Max_cycle;Signal;HPM_P1;HPM_P2
2022/11/18 00:00:18;;;;;;;16.20;10.15;;;7.40;99.90;;;;;;5034924;28;20051;-80
2022/11/18 00:02:44;;;;;;;18.02;10.43;;;7.40;99.90;;;;;;5034822;28;20485;-82
2022/11/18 00:05:09;;;;;;;16.05;9.60;;;8.00;99.90;;;;;;5034967;28;20490;-80
2022/11/18 00:07:35;;;;;;;20.50;11.15;;;7.40;99.90;;;;;;5018378;28;20102;-85
2022/11/18 00:10:00;;;;;;;18.48;10.40;;;7.40;99.90;;;;;;5051336;28;20561;-81
2022/11/18 00:15:10;;;;;;;20.63;10.70;;;7.40;99.90;;;;;;5037239;28;20053;-84
2022/11/18 00:17:36;;;;;;;20.92;11.13;;;7.40;99.90;;;;;;5018346;28;20124;-81
2022/11/18 00:20:02;;;;;;;19.15;11.68;;;7.40;99.90;;;;;;5034388;28;20053;-81
2022/11/18 00:22:27;;;;;;;21.60;11.20;;;7.40;99.90;;;;;;5034819;28;20041;-82
2022/11/18 00:24:53;;;;;;;19.20;10.65;;;7.40;99.90;;;;;;5018120;28;20058;-84
2022/11/18 00:27:18;;;;;;;23.20;12.27;;;7.40;99.90;;;;;;5038345;28;20076;-84
2022/11/18 00:29:44;;;;;;;20.58;10.93;;;7.40;99.90;;;;;;5038589;28;20524;-82
2022/11/18 00:32:10;;;;;;;23.63;11.38;;;7.40;99.90;;;;;;5054694;28;20090;-80
2022/11/18 00:34:36;;;;;;;24.23;12.55;;;7.40;99.90;;;;;;5021922;28;20048;-80
2022/11/18 00:37:02;;;;;;;24.40;12.27;;;7.40;99.90;;;;;;5037986;28;20049;-82
2022/11/18 00:39:28;;;;;;;22.08;12.07;;;7.70;99.90;;;;;;5054959;28;20101;-82
2022/11/18 00:44:37;;;;;;;24.33;12.82;;;7.40;99.90;;;;;;5040679;28;20049;-82
2022/11/18 00:47:03;;;;;;;22.70;11.90;;;7.60;99.90;;;;;;5054216;28;20052;-83
2022/11/18 00:49:29;;;;;;;21.40;12.30;;;7.40;99.90;;;;;;5038001;28;20075;-85
2022/11/18 00:51:55;;;;;;;23.23;12.45;;;7.60;99.90;;;;;;5054596;28;20136;-82
2022/11/18 00:54:21;;;;;;;24.23;12.20;;;7.40;99.90;;;;;;5037945;28;20060;-83
2022/11/18 00:56:47;;;;;;;22.92;12.02;;;7.60;99.90;;;;;;5038001;28;20127;-84
2022/11/18 00:59:13;;;;;;;22.10;12.07;;;7.30;99.90;;;;;;5054621;28;20045;-84
2022/11/18 01:01:39;;;;;;;24.30;12.45;;;7.40;99.90;;;;;;5054099;28;20047;-82
2022/11/18 01:04:04;;;;;;;21.52;12.23;;;7.30;99.90;;;;;;5037851;28;20052;-81
2022/11/18 01:06:30;;;;;;;24.38;12.20;;;7.30;99.90;;;;;;5037850;28;20095;-82
2022/11/18 01:08:56;;;;;;;22.17;12.05;;;7.30;99.90;;;;;;5054047;28;20084;-83
2022/11/18 01:14:05;;;;;;;23.15;10.98;;;7.40;99.90;;;;;;5039891;28;20057;-83
2022/11/18 01:16:31;;;;;;;21.65;12.27;;;7.40;99.90;;;;;;5037588;28;20131;-84
2022/11/18 01:18:57;;;;;;;25.45;12.20;;;7.30;99.90;;;;;;5020682;28;20513;-82
2022/11/18 01:21:23;;;;;;;22.75;12.13;;;7.50;99.90;;;;;;5037495;28;20056;-83
2022/11/18 01:23:49;;;;;;;24.90;12.73;;;7.30;99.90;;;;;;5037616;28;20048;-85
2022/11/18 01:26:15;;;;;;;24.30;12.18;;;7.40;99.90;;;;;;5037412;28;20549;-83
2022/11/18 01:28:41;;;;;;;23.45;12.25;;;7.30;99.90;;;;;;5037396;28;20405;-81
2022/11/18 01:31:16;;;;;;;23.77;11.88;;;7.30;99.90;;;;;;5053930;28;20041;-81
2022/11/18 01:33:44;;;;;;;27.60;13.10;;;7.20;99.90;;;;;;5037237;28;20053;-82
2022/11/18 01:36:26;;;;;;;25.17;13.10;;;8.00;99.90;;;;;;5053610;28;20045;-82
2022/11/18 01:38:53;;;;;;;25.15;13.73;;;7.20;99.90;;;;;;5036668;28;20508;-81
2022/11/18 01:41:21;;;;;;;26.17;13.30;;;7.20;99.90;;;;;;5036677;28;20048;-84
2022/11/18 01:43:53;;;;;;;27.48;13.52;;;7.20;99.90;;;;;;5053907;28;20102;-81
2022/11/18 01:46:20;;;;;;;28.25;13.40;;;7.20;99.90;;;;;;5036773;28;20052;-81
2022/11/18 01:48:50;;;;;;;30.90;14.75;;;7.40;99.90;;;;;;5053758;28;20080;-80
2022/11/18 01:51:19;;;;;;;30.00;15.23;;;7.60;99.90;;;;;;5053638;28;20551;-80
2022/11/18 01:53:52;;;;;;;29.10;14.43;;;7.20;99.90;;;;;;5053501;28;20051;-82
2022/11/18 01:56:25;;;;;;;30.58;14.63;;;7.20;99.90;;;;;;5036850;28;20079;-85
2022/11/18 01:58:58;;;;;;;29.70;14.38;;;7.20;99.90;;;;;;5053473;28;20405;-82
2022/11/18 02:01:25;;;;;;;30.80;14.63;;;7.10;99.90;;;;;;5053038;28;20401;-83
2022/11/18 02:03:52;;;;;;;29.33;14.82;;;7.10;99.90;;;;;;5036595;28;20049;-82
2022/11/18 02:06:19;;;;;;;25.42;14.20;;;7.50;99.90;;;;;;5053348;28;20126;-80
2022/11/18 02:08:45;;;;;;;34.10;15.35;;;7.10;99.90;;;;;;5053456;28;20048;-82
2022/11/18 02:11:49;;;;;;;30.02;14.90;;;7.10;99.90;;;;;;5036582;28;20053;-78
2022/11/18 02:14:02;;;;;;;31.48;14.73;;;7.10;99.90;;;;;;5053094;28;20048;-83
2022/11/18 02:16:42;;;;;;;30.15;13.35;;;7.10;99.90;;;;;;5036545;28;20084;-82
2022/11/18 02:19:31;;;;;;;33.50;14.80;;;7.10;99.90;;;;;;5035697;28;20064;-80
2022/11/18 02:22:36;;;;;;;30.65;14.68;;;7.40;99.90;;;;;;5052449;28;20049;-80
2022/11/18 02:25:46;;;;;;;28.85;14.40;;;7.10;99.90;;;;;;5052890;28;20493;-84
2022/11/18 02:28:30;;;;;;;31.83;15.40;;;7.10;99.90;;;;;;5036256;28;20052;-79
2022/11/18 02:31:05;;;;;;;31.48;14.77;;;7.10;99.90;;;;;;5036382;28;20040;-80
2022/11/18 02:33:43;;;;;;;28.40;14.48;;;7.10;99.90;;;;;;5052642;28;20438;-81
2022/11/18 02:36:21;;;;;;;31.70;14.77;;;7.10;99.90;;;;;;5052346;28;20045;-81
2022/11/18 02:38:59;;;;;;;23.70;13.25;;;7.10;99.90;;;;;;5052591;28;20037;-81
2022/11/18 02:41:29;;;;;;;29.70;14.68;;;7.10;99.90;;;;;;5052141;28;20517;-81
2022/11/18 02:44:14;;;;;;;26.40;14.73;;;7.40;99.90;;;;;;5052426;28;20489;-81
2022/11/18 02:46:43;;;;;;;29.30;13.50;;;7.10;99.90;;;;;;5052661;28;20082;-81
2022/11/18 02:49:15;;;;;;;27.80;14.07;;;7.10;99.90;;;;;;5052024;28;20045;-80
2022/11/18 02:51:44;;;;;;;27.55;14.40;;;7.00;99.90;;;;;;5035897;28;20040;-82
2022/11/18 02:54:12;;;;;;;28.02;14.80;;;7.10;99.90;;;;;;5035747;28;20055;-81
2022/11/18 02:56:38;;;;;;;29.00;13.93;;;7.10;99.90;;;;;;5035972;28;20500;-82
2022/11/18 02:59:05;;;;;;;28.13;13.77;;;7.30;99.90;;;;;;5035787;28;20048;-82
2022/11/18 03:01:34;;;;;;;28.20;13.90;;;7.10;99.90;;;;;;5018929;28;20036;-80
2022/11/18 03:04:00;;;;;;;32.08;14.32;;;7.00;99.90;;;;;;5035791;28;20271;-81
2022/11/18 03:06:51;;;;;;;28.70;13.70;;;7.00;99.90;;;;;;5035467;28;20048;-84
2022/11/18 03:09:24;;;;;;;29.33;14.65;;;7.00;99.90;;;;;;5035341;28;20107;-80
2022/11/18 03:12:16;;;;;;;27.42;14.73;;;7.00;99.90;;;;;;5051943;28;20678;-84
2022/11/18 03:15:01;;;;;;;;;;;7.00;99.90;;;;;;5025585;28;20440;-84
2022/11/18 03:17:54;;;;;;;31.70;14.85;;;7.00;99.90;;;;;;5051637;28;20293;-79
2022/11/18 03:20:50;;;;;;;29.50;15.38;;;7.00;99.90;;;;;;5034731;28;20057;-82
2022/11/18 03:23:27;;;;;;;29.92;14.10;;;7.00;99.90;;;;;;5051648;28;20457;-81
2022/11/18 03:26:17;;;;;;;30.48;14.23;;;6.90;99.90;;;;;;5051845;28;20045;-83
2022/11/18 03:28:57;;;;;;;27.92;14.10;;;6.90;99.90;;;;;;5052064;28;20087;-86
2022/11/18 03:31:41;;;;;;;28.77;13.82;;;6.90;99.90;;;;;;5035137;28;20127;-80
2022/11/18 03:34:18;;;;;;;29.55;14.77;;;6.90;99.90;;;;;;5051579;28;20437;-85
2022/11/18 03:36:48;;;;;;;30.48;14.98;;;6.90;99.90;;;;;;5035334;28;20049;-80
2022/11/18 03:39:18;;;;;;;28.27;14.00;;;6.90;99.90;;;;;;5035001;28;20053;-83
2022/11/18 03:42:07;;;;;;;26.33;14.38;;;6.90;99.90;;;;;;5035007;28;20083;-82
2022/11/18 03:44:36;;;;;;;28.48;14.57;;;6.90;99.90;;;;;;5035470;28;20493;-84
2022/11/18 03:47:11;;;;;;;28.50;14.20;;;6.90;99.90;;;;;;5051607;28;20048;-81
2022/11/18 03:49:45;;;;;;;27.00;14.07;;;6.90;99.90;;;;;;5051626;28;20045;-84
2022/11/18 03:52:17;;;;;;;29.38;13.68;;;6.90;99.90;;;;;;5051572;28;20077;-82
2022/11/18 03:54:46;;;;;;;25.52;13.50;;;6.90;99.90;;;;;;5034913;28;20405;-81
2022/11/18 03:57:18;;;;;;;27.67;13.50;;;6.90;99.90;;;;;;5034958;28;20063;-83
2022/11/18 03:59:58;;;;;;;27.10;14.00;;;6.90;99.90;;;;;;5051744;28;20045;-82
2022/11/18 04:02:26;;;;;;;26.65;12.70;;;6.90;99.90;;;;;;5038689;28;20128;-81
2022/11/18 04:04:54;;;;;;;24.58;12.00;;;6.80;99.90;;;;;;5055613;28;20045;-84
2022/11/18 04:07:34;;;;;;;22.85;12.13;;;6.80;99.90;;;;;;5038642;28;20053;-80
2022/11/18 04:10:40;;;;;;;26.25;12.23;;;6.80;99.90;;;;;;5055238;28;20045;-85
2022/11/18 04:13:23;;;;;;;21.70;11.63;;;6.80;99.90;;;;;;5022264;28;20057;-82
2022/11/18 04:15:49;;;;;;;23.85;11.52;;;6.80;99.90;;;;;;5038708;28;20489;-82
2022/11/18 04:18:16;;;;;;;26.77;12.85;;;6.80;99.90;;;;;;5038536;28;20057;-81
2022/11/18 04:20:42;;;;;;;23.58;11.85;;;7.60;99.90;;;;;;5054589;28;20099;-85
2022/11/18 04:23:08;;;;;;;21.08;11.48;;;6.80;99.90;;;;;;5055274;28;20076;-81
2022/11/18 04:25:34;;;;;;;21.90;11.55;;;7.80;99.90;;;;;;5054975;28;20508;-83
2022/11/18 04:28:00;;;;;;;24.23;10.88;;;6.80;99.90;;;;;;5022027;28;20049;-83
2022/11/18 04:30:26;;;;;;;20.70;11.45;;;6.80;99.90;;;;;;5054803;28;20059;-82
2022/11/18 04:32:51;;;;;;;23.80;11.10;;;6.80;99.90;;;;;;5055213;28;20052;-83
2022/11/18 04:35:17;;;;;;;20.45;10.93;;;6.90;99.90;;;;;;5038498;28;20041;-85
2022/11/18 04:37:43;;;;;;;24.17;10.95;;;6.80;99.90;;;;;;5035197;28;20094;-83
2022/11/18 04:40:09;;;;;;;22.23;10.80;;;6.80;99.90;;;;;;5035891;28;20048;-83
2022/11/18 04:42:35;;;;;;;25.02;11.65;;;6.80;99.90;;;;;;5036059;28;20106;-83
2022/11/18 04:45:02;;;;;;;19.80;10.55;;;6.80;99.90;;;;;;5052587;28;20037;-81
2022/11/18 04:47:27;;;;;;;25.88;11.52;;;6.70;99.90;;;;;;5051905;28;20454;-83
2022/11/18 04:49:53;;;;;;;25.00;10.90;;;6.80;99.90;;;;;;5052030;28;20088;-82
2022/11/18 04:52:19;;;;;;;21.30;10.55;;;6.70;99.90;;;;;;5019209;28;20041;-82
2022/11/18 04:54:45;;;;;;;26.40;10.63;;;6.90;99.90;;;;;;5052334;28;20146;-84
2022/11/18 04:57:11;;;;;;;24.15;10.27;;;6.70;99.90;;;;;;5035809;28;20045;-83
2022/11/18 04:59:37;;;;;;;23.17;10.57;;;6.80;99.90;;;;;;5052009;28;20049;-83
2022/11/18 05:02:04;;;;;;;23.17;10.38;;;7.00;99.90;;;;;;5051826;28;20111;-80
2022/11/18 05:04:33;;;;;;;24.15;10.85;;;7.10;99.90;;;;;;4684308;28;9999714;-84
2022/11/18 05:07:00;;;;;;;22.73;11.25;;;7.00;99.90;;;;;;5032353;28;20052;-84
2022/11/18 05:09:26;;;;;;;23.02;10.68;;;6.70;99.90;;;;;;5032403;28;20045;-82
2022/11/18 05:14:36;;;;;;;23.50;10.60;;;6.70;99.90;;;;;;5017614;28;20557;-84
2022/11/18 05:17:04;;;;;;;24.55;10.30;;;6.70;99.90;;;;;;5032198;28;20493;-86
2022/11/18 05:19:30;;;;;;;22.08;10.27;;;6.70;99.90;;;;;;5018251;28;20529;-82
2022/11/18 05:21:56;;;;;;;24.88;10.60;;;6.70;99.90;;;;;;5034926;28;20136;-86
2022/11/18 05:24:23;;;;;;;22.27;11.02;;;6.70;99.90;;;;;;5034772;28;20146;-89
2022/11/18 05:26:49;;;;;;;24.95;10.80;;;6.70;99.90;;;;;;5018172;28;20071;-85
2022/11/18 05:29:17;;;;;;;25.35;11.02;;;7.30;99.90;;;;;;5037099;28;20048;-83
2022/11/18 05:31:44;;;;;;;24.23;10.93;;;6.70;99.90;;;;;;5020962;28;20053;-85
2022/11/18 05:34:10;;;;;;;26.52;11.05;;;7.00;99.90;;;;;;5021125;28;20045;-81
2022/11/18 05:36:35;;;;;;;26.15;11.57;;;6.70;99.90;;;;;;5020681;28;20394;-84
2022/11/18 05:39:01;;;;;;;25.58;11.23;;;6.90;99.90;;;;;;5037519;28;20041;-83
2022/11/18 05:44:13;;;;;;;25.90;11.88;;;6.70;99.90;;;;;;4983232;28;20057;-80
2022/11/18 05:46:39;;;;;;;26.05;12.30;;;6.80;99.90;;;;;;5020556;28;20095;-81
2022/11/18 05:49:05;;;;;;;28.38;12.90;;;6.70;99.90;;;;;;5036044;28;20045;-85
2022/11/18 05:51:30;;;;;;;34.65;12.95;;;6.70;99.90;;;;;;5018175;28;20041;-85
2022/11/18 05:53:57;;;;;;;33.53;14.27;;;6.70;99.90;;;;;;5032600;28;20501;-83
2022/11/18 05:56:36;;;;;;;33.70;13.55;;;6.70;99.90;;;;;;5033898;28;20044;-82
2022/11/18 05:59:01;;;;;;;30.45;12.48;;;6.70;99.90;;;;;;5018309;28;20107;-83
2022/11/18 06:01:30;;;;;;;33.22;14.43;;;7.00;99.90;;;;;;5033937;28;20533;-82
2022/11/18 06:03:57;;;;;;;34.75;14.38;;;6.70;99.90;;;;;;5017800;28;20099;-80
2022/11/18 06:06:24;;;;;;;36.53;15.40;;;6.70;99.90;;;;;;5034498;28;20099;-81
2022/11/18 06:09:02;;;;;;;37.20;14.50;;;6.70;99.90;;;;;;5032347;28;20049;-82
2022/11/18 06:11:34;;;;;;;38.28;15.93;;;6.70;99.90;;;;;;5033995;28;20048;-82
2022/11/18 06:14:06;;;;;;;36.20;15.85;;;6.70;99.90;;;;;;5033672;28;20493;-83
2022/11/18 06:16:34;;;;;;;37.40;16.38;;;6.60;99.90;;;;;;5017701;28;20049;-84
2022/11/18 06:19:01;;;;;;;44.47;17.17;;;6.60;99.90;;;;;;5012879;28;20505;-85
2022/11/18 06:21:27;;;;;;;37.00;16.58;;;6.60;99.90;;;;;;5014042;28;20069;-82
2022/11/18 06:23:54;;;;;;;45.10;18.02;;;6.70;99.90;;;;;;4997507;28;20099;-86
2022/11/18 06:26:19;;;;;;;44.38;18.70;;;6.80;99.90;;;;;;4981306;28;20088;-83
2022/11/18 06:28:47;;;;;;;43.15;17.40;;;6.70;99.90;;;;;;5014081;28;20050;-80
2022/11/18 06:31:12;;;;;;;43.05;16.42;;;6.60;99.90;;;;;;4997852;28;20049;-80
2022/11/18 06:33:38;;;;;;;42.65;16.65;;;6.60;99.90;;;;;;4981576;28;20510;-82
2022/11/18 06:36:04;;;;;;;38.00;15.88;;;6.60;99.90;;;;;;5014018;28;20375;-80
2022/11/18 06:38:30;;;;;;;37.65;15.48;;;6.50;99.90;;;;;;4997563;28;20111;-80
2022/11/18 06:41:00;;;;;;;39.72;15.70;;;7.00;99.90;;;;;;5013920;28;20084;-81
2022/11/18 06:43:37;;;;;;;31.20;12.52;;;6.50;99.90;;;;;;4981639;28;20045;-81
2022/11/18 06:48:49;;;;;;;33.28;12.88;;;6.50;99.90;;;;;;5014021;28;20454;-85
2022/11/18 06:51:15;;;;;;;28.83;11.88;;;6.50;99.90;;;;;;5013731;28;20061;-84
2022/11/18 06:53:40;;;;;;;30.58;12.07;;;6.40;99.90;;;;;;5011447;28;20502;-85
2022/11/18 06:56:11;;;;;;;29.92;11.65;;;6.40;99.90;;;;;;5013413;28;20091;-83
2022/11/18 06:58:37;;;;;;;31.70;12.48;;;6.40;99.90;;;;;;4996746;28;20569;-80
2022/11/18 07:01:21;;;;;;;29.42;12.23;;;6.40;99.90;;;;;;4996845;28;20875;-83
2022/11/18 07:03:47;;;;;;;32.20;12.32;;;6.40;99.90;;;;;;4996618;28;20045;-82
2022/11/18 07:06:17;;;;;;;28.13;12.95;;;6.40;99.90;;;;;;4997153;28;20059;-81
2022/11/18 07:08:43;;;;;;;32.28;12.68;;;6.70;99.90;;;;;;4996694;28;20053;-78
2022/11/18 07:11:14;;;;;;;36.58;13.52;;;6.40;99.90;;;;;;5013232;28;20063;-82
2022/11/18 07:13:41;;;;;;;26.10;11.60;;;7.30;99.90;;;;;;5013039;28;20460;-81
2022/11/18 07:16:18;;;;;;;33.60;13.77;;;6.60;99.90;;;;;;5011972;28;20057;-82
2022/11/18 07:18:47;;;;;;;34.40;14.23;;;6.40;99.90;;;;;;5015174;28;20080;-81
2022/11/18 07:21:15;;;;;;;33.13;13.60;;;6.30;99.90;;;;;;5014735;28;20049;-81
2022/11/18 07:23:41;;;;;;;32.60;14.30;;;6.30;99.90;;;;;;5015518;28;20068;-82
2022/11/18 07:26:07;;;;;;;39.13;14.98;;;7.10;99.90;;;;;;4999349;28;20486;-82
2022/11/18 07:28:34;;;;;;;41.03;15.10;;;6.30;99.90;;;;;;5015581;28;20043;-84
2022/11/18 07:31:07;;;;;;;34.60;14.57;;;6.40;99.90;;;;;;4999350;28;20064;-81
2022/11/18 07:33:33;;;;;;;35.47;14.20;;;6.30;99.90;;;;;;5015651;28;20398;-83
2022/11/18 07:36:00;;;;;;;34.92;14.15;;;6.40;99.90;;;;;;5015634;28;20433;-79
2022/11/18 07:38:26;;;;;;;35.60;15.05;;;6.70;99.90;;;;;;5015290;28;20057;-79
2022/11/18 07:40:52;;;;;;;33.97;14.95;;;6.30;99.90;;;;;;4998929;28;20067;-81
2022/11/18 07:43:17;;;;;;;29.55;13.63;;;6.40;99.90;;;;;;4999105;28;20482;-83
2022/11/18 07:45:43;;;;;;;33.88;13.95;;;6.30;99.90;;;;;;4982671;28;20123;-82
2022/11/18 07:48:09;;;;;;;34.65;13.93;;;6.30;99.90;;;;;;4999014;28;20045;-84
2022/11/18 07:50:35;;;;;;;31.00;12.80;;;6.30;99.90;;;;;;4999346;28;20046;-82
2022/11/18 07:53:00;;;;;;;31.25;13.13;;;6.30;99.90;;;;;;5015229;28;20395;-83
2022/11/18 07:55:26;;;;;;;31.55;12.82;;;6.60;99.90;;;;;;4999241;28;20211;-83
2022/11/18 07:57:51;;;;;;;30.88;13.55;;;7.10;99.90;;;;;;4999135;28;20049;-79
2022/11/18 08:00:18;;;;;;;32.03;13.43;;;7.20;99.90;;;;;;4998879;28;20525;-83
2022/11/18 08:02:43;;;;;;;33.97;13.00;;;6.30;99.90;;;;;;4998605;28;20461;-81
2022/11/18 08:05:09;;;;;;;32.13;13.27;;;6.30;99.90;;;;;;5015169;28;20041;-80
2022/11/18 08:07:35;;;;;;;33.17;13.32;;;6.60;99.90;;;;;;4998745;28;20069;-79
2022/11/18 08:10:02;;;;;;;33.75;14.13;;;6.30;99.90;;;;;;4982547;28;20091;-82
2022/11/18 08:12:29;;;;;;;32.63;13.48;;;6.50;99.90;;;;;;4982716;28;20428;-82
2022/11/18 08:14:55;;;;;;;37.33;15.05;;;6.30;99.90;;;;;;5015275;28;20111;-81
2022/11/18 08:17:21;;;;;;;35.40;14.02;;;7.10;99.90;;;;;;5014935;28;20095;-83
2022/11/18 08:19:47;;;;;;;36.45;14.38;;;6.20;99.90;;;;;;4998574;28;20065;-81
2022/11/18 08:22:13;;;;;;;32.15;12.80;;;6.30;99.90;;;;;;4998751;28;20072;-79
2022/11/18 08:24:38;;;;;;;34.45;12.15;;;6.30;99.90;;;;;;5014904;28;20086;-81
2022/11/18 08:27:04;;;;;;;30.60;12.50;;;6.60;99.90;;;;;;4982371;28;20072;-81
2022/11/18 08:29:30;;;;;;;37.00;13.82;;;6.20;99.90;;;;;;5015248;28;20161;-80
2022/11/18 08:31:55;;;;;;;34.17;13.15;;;6.20;99.90;;;;;;4998781;28;20073;-82
2022/11/18 08:34:21;;;;;;;32.13;13.82;;;6.20;99.90;;;;;;5015010;28;20525;-81
2022/11/18 08:36:47;;;;;;;40.60;14.65;;;6.20;99.90;;;;;;4982079;28;20089;-82
2022/11/18 08:39:13;;;;;;;40.63;16.00;;;6.80;99.90;;;;;;5015061;28;20053;-82
2022/11/18 08:41:42;;;;;;;38.13;15.13;;;6.10;99.90;;;;;;4982397;28;20041;-78
2022/11/18 08:44:11;;;;;;;35.88;14.30;;;7.20;99.90;;;;;;4998535;28;20042;-83
2022/11/18 08:46:37;;;;;;;45.72;15.82;;;6.10;99.90;;;;;;5015209;28;20445;-81
2022/11/18 08:49:03;;;;;;;44.03;14.73;;;6.10;99.90;;;;;;4985822;28;20107;-82
2022/11/18 08:51:29;;;;;;;37.28;15.07;;;6.10;99.90;;;;;;5002346;28;20087;-80
2022/11/18 08:53:55;;;;;;;38.88;15.00;;;6.10;99.90;;;;;;5002142;28;20093;-80
2022/11/18 08:56:22;;;;;;;40.92;13.85;;;6.60;99.90;;;;;;4985834;28;20060;-82
2022/11/18 08:58:48;;;;;;;36.65;14.02;;;6.70;99.90;;;;;;5018223;28;20501;-81
2022/11/18 09:01:14;;;;;;;32.83;13.65;;;6.10;99.90;;;;;;5018015;28;20041;-83
2022/11/18 09:03:40;;;;;;;35.50;14.15;;;6.70;99.90;;;;;;5001990;28;20505;-81
2022/11/18 09:06:08;;;;;;;31.45;13.32;;;6.50;99.90;;;;;;5017791;28;20052;-79
2022/11/18 09:08:34;;;;;;;33.65;13.88;;;6.20;99.90;;;;;;5018331;28;20045;-81
2022/11/18 09:11:05;;;;;;;31.65;12.82;;;6.20;99.90;;;;;;5001566;28;20107;-84
2022/11/18 09:13:31;;;;;;;36.17;13.90;;;6.20;99.90;;;;;;5002098;28;20104;-83
2022/11/18 09:16:00;;;;;;;29.50;13.32;;;6.80;99.90;;;;;;5001613;28;20042;-84
2022/11/18 09:18:26;;;;;;;30.77;11.88;;;6.80;99.90;;;;;;5017927;28;20144;-84
2022/11/18 09:21:00;;;;;;;29.52;12.50;;;6.30;99.90;;;;;;5037675;28;20053;-80
2022/11/18 09:23:26;;;;;;;28.45;12.07;;;6.20;99.90;;;;;;5037720;28;20044;-82
2022/11/18 09:26:13;;;;;;;29.35;12.00;;;6.20;99.90;;;;;;5037693;28;20045;-81
2022/11/18 09:28:39;;;;;;;28.63;11.45;;;6.20;99.90;;;;;;5021476;28;20438;-85
2022/11/18 09:31:08;;;;;;;26.98;11.48;;;6.80;99.90;;;;;;5004842;28;20136;-83
2022/11/18 09:33:34;;;;;;;23.95;10.95;;;6.10;99.90;;;;;;5037358;28;20041;-81
2022/11/18 09:36:00;;;;;;;29.75;11.73;;;6.20;99.90;;;;;;5021277;28;20142;-82
2022/11/18 09:38:28;;;;;;;28.75;12.30;;;6.20;99.90;;;;;;5037133;28;20493;-79
2022/11/18 09:41:05;;;;;;;30.50;12.70;;;6.20;99.90;;;;;;5037145;28;20485;-82
2022/11/18 09:43:46;;;;;;;27.92;10.88;;;6.10;99.90;;;;;;5036856;28;20045;-81
2022/11/18 09:46:25;;;;;;;27.77;11.95;;;6.10;99.90;;;;;;5037013;28;20049;-82
2022/11/18 09:51:45;;;;;;;29.10;11.35;;;5.90;99.90;;;;;;5036941;28;20569;-80
2022/11/18 09:54:19;;;;;;;26.15;10.50;;;5.80;99.90;;;;;;5020268;28;20076;-84
2022/11/18 09:56:47;;;;;;;24.35;10.73;;;6.20;99.90;;;;;;5020511;28;20489;-86
2022/11/18 09:59:14;;;;;;;29.00;11.93;;;5.80;99.90;;;;;;5019321;28;20118;-82
2022/11/18 10:01:41;;;;;;;33.08;13.27;;;6.50;99.90;;;;;;5020003;28;20114;-83
2022/11/18 10:04:19;;;;;;;42.58;15.27;;;5.80;99.90;;;;;;5036786;28;20055;-81
2022/11/18 10:06:45;;;;;;;37.08;14.52;;;5.80;99.90;;;;;;5036960;28;20131;-84
2022/11/18 10:09:38;;;;;;;34.40;14.18;;;5.80;99.90;;;;;;5036603;28;20056;-81
2022/11/18 10:12:07;;;;;;;30.80;13.38;;;5.80;99.90;;;;;;5036573;28;20421;-81
2022/11/18 10:14:56;;;;;;;38.20;14.88;;;5.70;99.90;;;;;;5035542;28;20401;-80
2022/11/18 10:17:47;;;;;;;34.85;14.10;;;5.70;99.90;;;;;;4996390;28;20478;-82
2022/11/18 10:20:32;;;;;;;33.23;13.67;;;6.90;99.90;;;;;;5021538;28;20053;-82
2022/11/18 10:23:11;;;;;;;36.55;14.35;;;5.70;99.90;;;;;;5016615;28;20744;-81
2022/11/18 10:25:37;;;;;;;36.40;14.68;;;5.70;99.90;;;;;;5016552;28;20056;-80
2022/11/18 10:28:35;;;;;;;33.22;13.65;;;6.70;99.90;;;;;;5016628;28;20037;-79
2022/11/18 10:31:10;;;;;;;32.47;13.65;;;5.70;99.90;;;;;;4994597;28;20049;-84
2022/11/18 10:33:37;;;;;;;34.67;13.63;;;5.70;99.90;;;;;;5016129;28;20069;-80
2022/11/18 10:36:08;;;;;;;35.10;13.77;;;6.10;99.90;;;;;;5016448;28;20136;-80
2022/11/18 10:38:34;;;;;;;35.17;14.48;;;5.60;99.90;;;;;;5015936;28;20053;-79
2022/11/18 10:41:03;;;;;;;34.60;14.65;;;5.60;99.90;;;;;;5016240;28;20092;-80
2022/11/18 10:43:42;;;;;;;32.33;14.18;;;5.60;99.90;;;;;;5016115;28;20081;-78
2022/11/18 10:46:30;;;;;;;32.40;13.27;;;5.60;99.90;;;;;;4999770;28;20136;-82
2022/11/18 10:49:08;;;;;;;32.50;13.80;;;5.50;99.90;;;;;;4999965;28;20048;-79
2022/11/18 10:51:40;;;;;;;33.60;13.73;;;5.60;99.90;;;;;;5016083;28;20041;-80
2022/11/18 10:54:24;;;;;;;30.40;13.15;;;5.60;99.90;;;;;;4999806;28;20049;-79
2022/11/18 10:57:10;;;;;;;28.10;11.77;;;5.60;99.90;;;;;;4999830;28;20449;-82
2022/11/18 10:59:40;;;;;;;28.85;13.18;;;5.50;99.90;;;;;;4999459;28;20045;-81
2022/11/18 11:02:25;;;;;;;29.83;11.83;;;5.50;99.90;;;;;;5015833;28;20438;-81
2022/11/18 11:04:52;;;;;;;30.30;12.40;;;5.50;99.90;;;;;;4999479;28;20045;-81
2022/11/18 11:07:24;;;;;;;30.70;12.05;;;5.50;99.90;;;;;;5015972;28;20053;-80
2022/11/18 11:10:04;;;;;;;32.83;13.10;;;5.50;99.90;;;;;;4999418;28;20046;-79
2022/11/18 11:12:32;;;;;;;34.53;13.23;;;5.50;99.90;;;;;;5023363;28;20096;-79
2022/11/18 11:15:05;;;;;;;32.90;13.90;;;5.50;99.90;;;;;;5032215;28;20088;-78
2022/11/18 11:17:39;;;;;;;30.63;13.02;;;5.40;99.90;;;;;;5015356;28;20126;-83
2022/11/18 11:20:20;;;;;;;31.50;12.95;;;5.40;99.90;;;;;;5028798;28;20393;-81
2022/11/18 11:22:46;;;;;;;33.92;12.68;;;5.40;99.90;;;;;;5035264;28;20071;-78
2022/11/18 11:25:43;;;;;;;31.35;13.23;;;5.40;99.90;;;;;;5035544;28;20122;-82
2022/11/18 11:28:33;;;;;;;31.83;13.75;;;5.50;99.90;;;;;;5035593;28;20107;-80
2022/11/18 11:31:02;;;;;;;32.38;12.93;;;5.50;99.90;;;;;;5052146;28;20049;-80
2022/11/18 11:33:43;;;;;;;30.98;13.13;;;5.40;99.90;;;;;;5017377;28;20056;-78
2022/11/18 11:36:31;;;;;;;32.13;13.75;;;5.40;99.90;;;;;;5018496;28;20060;-81
2022/11/18 11:39:31;;;;;;;36.63;14.07;;;5.40;99.90;;;;;;5034962;28;20084;-78
2022/11/18 11:42:17;;;;;;;32.97;12.82;;;5.40;99.90;;;;;;5034862;28;20132;-82
2022/11/18 11:45:07;;;;;;;31.90;13.35;;;5.40;99.90;;;;;;5018354;28;20525;-83
2022/11/18 11:47:49;;;;;;;31.88;12.95;;;5.40;99.90;;;;;;5034525;28;20040;-81
2022/11/18 11:50:52;;;;;;;;;;;5.40;99.90;;;;;;5033755;28;20091;-82
2022/11/18 11:53:23;;;;;;;29.52;12.80;;;5.30;99.90;;;;;;5034976;28;20369;-81
2022/11/18 11:56:09;;;;;;;;;;;5.40;99.90;;;;;;5018533;28;20053;-83
2022/11/18 11:58:50;;;;;;;31.83;12.63;;;5.40;99.90;;;;;;4968791;28;20007;-80
2022/11/18 12:01:29;;;;;;;30.15;12.20;;;5.70;99.90;;;;;;5018377;28;20186;-79
2022/11/18 12:04:10;;;;;;;26.42;11.60;;;5.30;99.90;;;;;;5034936;28;20085;-80
2022/11/18 12:06:35;;;;;;;24.85;10.95;;;5.30;99.90;;;;;;5034647;28;20167;-83
2022/11/18 12:09:27;;;;;;;28.05;11.98;;;5.40;99.90;;;;;;5018218;28;20152;-82
2022/11/18 12:12:33;;;;;;;27.42;11.27;;;5.20;99.90;;;;;;5031902;28;20061;-85
2022/11/18 12:15:03;;;;;;;28.17;11.52;;;5.20;99.90;;;;;;5034048;28;20059;-84
2022/11/18 12:20:45;;;;;;;26.08;11.57;;;5.20;99.90;;;;;;5017634;28;20054;-79
2022/11/18 12:23:21;;;;;;;25.20;11.60;;;5.10;99.90;;;;;;5018153;28;20050;-79
2022/11/18 12:25:47;;;;;;;26.92;11.57;;;5.10;99.90;;;;;;5018717;28;20132;-80
2022/11/18 12:28:33;;;;;;;28.70;12.70;;;5.40;99.90;;;;;;5002694;28;20153;-81
2022/11/18 12:31:17;;;;;;;27.52;12.65;;;5.10;99.90;;;;;;5018810;28;20053;-81
2022/11/18 12:33:44;;;;;;;34.80;13.52;;;5.10;99.90;;;;;;5018835;28;20124;-87
2022/11/18 12:36:23;;;;;;;31.58;12.55;;;4.90;99.90;;;;;;5002286;28;20053;-81
2022/11/18 12:38:48;;;;;;;29.77;13.02;;;4.90;99.90;;;;;;5002132;28;20053;-80
2022/11/18 12:44:36;;;;;;;33.10;14.05;;;5.00;99.90;;;;;;5018520;28;20061;-88
2022/11/18 12:47:12;;;;;;;31.08;13.77;;;5.00;99.90;;;;;;5018481;28;20056;-80
2022/11/18 12:49:43;;;;;;;33.30;13.13;;;4.90;99.90;;;;;;5002347;28;20144;-81
2022/11/18 12:52:28;;;;;;;34.65;13.88;;;5.00;99.90;;;;;;5018353;28;20099;-81
2022/11/18 12:54:55;;;;;;;30.98;12.93;;;4.90;99.90;;;;;;5018432;28;20049;-82
2022/11/18 12:57:28;;;;;;;33.88;14.55;;;5.10;99.90;;;;;;5018150;28;20096;-81
2022/11/18 12:59:55;;;;;;;37.03;15.27;;;5.30;99.90;;;;;;5001520;28;20401;-84
2022/11/18 13:02:27;;;;;;;34.30;13.30;;;5.90;99.90;;;;;;5017996;28;20111;-82
2022/11/18 13:05:20;;;;;;;30.20;12.98;;;4.90;99.90;;;;;;5001780;28;20054;-81
2022/11/18 13:08:14;;;;;;;30.48;12.98;;;5.50;99.90;;;;;;5001748;28;20049;-78
2022/11/18 13:10:49;;;;;;;34.95;14.10;;;4.80;99.90;;;;;;4669127;28;10000364;-82
2022/11/18 13:13:31;;;;;;;35.17;14.35;;;4.70;99.90;;;;;;5015611;28;20050;-83
2022/11/18 13:18:52;;;;;;;31.67;14.00;;;4.70;99.90;;;;;;5023903;28;20088;-83
2022/11/18 13:24:22;;;;;;;31.83;12.48;;;4.70;99.90;;;;;;5047582;28;20067;-78
2022/11/18 13:26:54;;;;;;;31.23;13.15;;;4.60;99.90;;;;;;5046602;28;20036;-80
2022/11/18 13:29:29;;;;;;;33.45;13.43;;;4.60;99.90;;;;;;5051616;28;20383;-82
2022/11/18 13:32:13;;;;;;;29.50;12.43;;;4.50;99.90;;;;;;5051576;28;20501;-80